createdAt,value
2019-03-05T00:00:02.481Z,7.9
2019-03-05T00:01:03.902Z,7.9
2019-03-05T00:02:05.459Z,7.9
2019-03-05T00:03:07.021Z,7.9
2019-03-05T00:04:08.566Z,7.9
2019-03-05T00:05:10.112Z,7.9
2019-03-05T00:06:11.513Z,7.9
2019-03-05T00:07:12.932Z,7.3
2019-03-05T00:08:14.176Z,7.5
2019-03-05T00:09:15.739Z,7.8
2019-03-05T00:10:17.181Z,7.9
2019-03-05T00:11:18.713Z,7.9
2019-03-05T00:12:20.249Z,7.9
2019-03-05T00:13:21.795Z,7.9
2019-03-05T00:14:23.331Z,7.8
2019-03-05T00:15:24.879Z,7.7
2019-03-05T00:16:26.102Z,7.9
2019-03-05T00:17:27.641Z,7.4
2019-03-05T00:18:29.176Z,7.7
2019-03-05T00:19:30.569Z,7.9
2019-03-05T00:20:32.122Z,7.9
2019-03-05T00:21:33.671Z,7.9
2019-03-05T00:22:35.218Z,7.9
2019-03-05T00:23:36.602Z,7.9
2019-03-05T00:24:37.833Z,7.9
2019-03-05T00:25:39.287Z,7.4
2019-03-05T00:26:40.685Z,7.6
2019-03-05T00:27:42.229Z,7.8
2019-03-05T00:28:43.770Z,7.9
2019-03-05T00:29:45.302Z,7.7
2019-03-05T00:30:46.857Z,7.9
2019-03-05T00:31:48.409Z,7.9
2019-03-05T00:32:49.951Z,7.9
2019-03-05T00:33:51.380Z,7.9
2019-03-05T00:34:52.795Z,7.9
2019-03-05T00:35:53.855Z,7.9
2019-03-05T00:36:55.419Z,7.9
2019-03-05T00:37:56.833Z,7.9
2019-03-05T00:38:58.240Z,7.9
2019-03-05T00:39:59.771Z,7.9
2019-03-05T00:41:01.323Z,7.9
2019-03-05T00:42:02.879Z,7.9
2019-03-05T00:43:04.271Z,7.7
2019-03-05T00:44:05.653Z,7.8
2019-03-05T00:45:06.885Z,7.9
2019-03-05T00:46:08.414Z,7.9
2019-03-05T00:47:09.793Z,7.9
2019-03-05T00:48:12.523Z,7.9
2019-03-05T00:49:14.080Z,7.9
2019-03-05T00:50:15.646Z,7.9
2019-03-05T00:51:26.626Z,7.9
2019-03-05T00:52:28.217Z,7.9
2019-03-05T00:53:29.776Z,7.9
2019-03-05T00:54:31.197Z,7.9
2019-03-05T00:55:32.408Z,7.9
2019-03-05T00:56:33.961Z,7.9
2019-03-05T00:57:35.509Z,7.9
2019-03-05T00:58:36.766Z,7.9
2019-03-05T00:59:38.316Z,7.9
2019-03-05T01:00:39.586Z,7.9
2019-03-05T01:01:41.139Z,7.9
2019-03-05T01:02:42.534Z,7.9
2019-03-05T01:03:44.098Z,7.9
2019-03-05T01:04:45.311Z,7.9
2019-03-05T01:05:46.747Z,7.9
2019-03-05T01:06:48.190Z,7.9
2019-03-05T01:07:49.736Z,7.9
2019-03-05T01:08:51.149Z,7.9
2019-03-05T01:09:52.699Z,7.8
2019-03-05T01:10:54.111Z,7.8
2019-03-05T01:11:55.675Z,7.8
2019-03-05T01:12:57.210Z,7.8
2019-03-05T01:13:58.741Z,7.8
2019-03-05T01:15:00.353Z,7.8
2019-03-05T01:16:01.907Z,7.8
2019-03-05T01:17:03.458Z,7.8
2019-03-05T01:18:04.689Z,7.8
2019-03-05T01:19:06.214Z,7.8
2019-03-05T01:20:07.437Z,7.8
2019-03-05T01:21:08.833Z,7.8
2019-03-05T01:22:10.370Z,7.9
2019-03-05T01:23:11.923Z,7.9
2019-03-05T01:24:13.455Z,7.9
2019-03-05T01:25:14.844Z,7.9
2019-03-05T01:26:16.390Z,7.9
2019-03-05T01:27:17.940Z,7.9
2019-03-05T01:28:19.487Z,7.9
2019-03-05T01:29:21.034Z,7.9
2019-03-05T01:30:22.266Z,7.9
2019-03-05T01:31:23.652Z,7.9
2019-03-05T01:32:24.964Z,7.9
2019-03-05T01:33:26.338Z,7.9
2019-03-05T01:34:27.739Z,7.9
2019-03-05T01:35:29.162Z,7.9
2019-03-05T01:36:30.381Z,7.9
2019-03-05T01:37:31.933Z,7.9
2019-03-05T01:38:33.320Z,7.9
2019-03-05T01:39:34.871Z,7.9
2019-03-05T01:40:36.252Z,7.9
2019-03-05T01:41:37.808Z,7.9
2019-03-05T01:42:39.376Z,7.9
2019-03-05T01:43:40.916Z,7.9
2019-03-05T01:44:42.467Z,7.9
2019-03-05T01:45:43.858Z,7.9
2019-03-05T01:46:45.413Z,7.9
2019-03-05T01:47:46.976Z,7.9
2019-03-05T01:48:48.538Z,7.9
2019-03-05T01:49:50.105Z,7.9
2019-03-05T01:50:51.503Z,7.9
2019-03-05T01:51:53.141Z,7.9
2019-03-05T01:52:54.280Z,7.9
2019-03-05T01:53:55.897Z,7.9
2019-03-05T01:54:57.450Z,7.9
2019-03-05T01:55:58.982Z,7.9
2019-03-05T01:57:00.381Z,7.9
2019-03-05T01:58:01.785Z,7.9
2019-03-05T01:59:03.167Z,7.9
2019-03-05T02:00:04.721Z,7.8
2019-03-05T02:01:20.949Z,7.8
2019-03-05T02:02:22.326Z,7.8
2019-03-05T02:03:23.856Z,7.8
2019-03-05T02:04:25.252Z,7.9
2019-03-05T02:05:26.646Z,7.8
2019-03-05T02:06:27.886Z,7.8
2019-03-05T02:07:29.441Z,7.7
2019-03-05T02:08:31.023Z,7.7
2019-03-05T02:09:32.560Z,7.7
2019-03-05T02:10:33.928Z,7.7
2019-03-05T02:11:35.170Z,7.6
2019-03-05T02:12:36.706Z,7.5
2019-03-05T02:13:38.248Z,7.4
2019-03-05T02:14:39.800Z,7.3
2019-03-05T02:15:41.037Z,7.2
2019-03-05T02:16:42.270Z,7.2
2019-03-05T02:17:43.843Z,7.2
2019-03-05T02:18:45.413Z,7.2
2019-03-05T02:19:46.810Z,7.2
2019-03-05T02:20:48.369Z,7.2
2019-03-05T02:21:49.770Z,7.2
2019-03-05T02:22:50.844Z,7.2
2019-03-05T02:23:52.232Z,7.1
2019-03-05T02:24:53.623Z,7.1
2019-03-05T02:25:55.166Z,7.1
2019-03-05T02:26:56.540Z,7.1
2019-03-05T02:27:58.092Z,7.1
2019-03-05T02:28:59.660Z,7.1
2019-03-05T02:30:01.606Z,7.1
2019-03-05T02:31:03.336Z,7.1
2019-03-05T02:32:04.792Z,7.1
2019-03-05T02:33:06.380Z,7.1
2019-03-05T02:34:07.930Z,7.1
2019-03-05T02:35:09.330Z,7.1
2019-03-05T02:36:10.927Z,7.1
2019-03-05T02:37:12.488Z,7.1
2019-03-05T02:38:13.895Z,7.1
2019-03-05T02:39:15.462Z,7.1
2019-03-05T02:40:16.738Z,7.1
2019-03-05T02:41:18.118Z,7.1
2019-03-05T02:42:19.703Z,7.1
2019-03-05T02:43:21.272Z,7.1
2019-03-05T02:44:22.822Z,7.1
2019-03-05T02:45:24.241Z,7.1
2019-03-05T02:46:25.821Z,7.1
2019-03-05T02:47:27.369Z,7.1
2019-03-05T02:48:28.650Z,7.1
2019-03-05T02:49:30.221Z,7.2
2019-03-05T02:50:31.795Z,7.2
2019-03-05T02:51:33.221Z,7.2
2019-03-05T02:52:34.648Z,7.1
2019-03-05T02:53:36.168Z,7.2
2019-03-05T02:54:37.410Z,7.2
2019-03-05T02:55:38.966Z,7.2
2019-03-05T02:56:40.283Z,7.2
2019-03-05T02:57:41.701Z,7.2
2019-03-05T02:58:43.313Z,7.2
2019-03-05T02:59:44.725Z,7.2
2019-03-05T03:00:46.302Z,7.2
2019-03-05T03:01:47.895Z,7.2
2019-03-05T03:02:49.520Z,7.2
2019-03-05T03:03:51.058Z,7.2
2019-03-05T03:04:52.745Z,7.2
2019-03-05T03:05:54.340Z,7.2
2019-03-05T03:06:55.899Z,7.2
2019-03-05T03:07:57.485Z,7.2
2019-03-05T03:08:58.905Z,7.2
2019-03-05T03:10:00.630Z,7.2
2019-03-05T03:11:02.045Z,7.2
2019-03-05T03:12:03.660Z,7.2
2019-03-05T03:13:05.143Z,7.2
2019-03-05T03:14:06.529Z,7.2
2019-03-05T03:15:08.092Z,7.3
2019-03-05T03:16:09.656Z,7.3
2019-03-05T03:17:11.241Z,7.4
2019-03-05T03:18:12.799Z,7.4
2019-03-05T03:19:14.381Z,7.5
2019-03-05T03:20:15.882Z,7.5
2019-03-05T03:21:17.446Z,7.6
2019-03-05T03:22:19.192Z,7.7
2019-03-05T03:23:20.620Z,7.7
2019-03-05T03:24:22.233Z,7.7
2019-03-05T03:25:23.681Z,7.8
2019-03-05T03:26:25.079Z,7.8
2019-03-05T03:27:26.639Z,7.8
2019-03-05T03:28:28.214Z,7.8
2019-03-05T03:29:29.780Z,7.8
2019-03-05T03:30:31.453Z,7.8
2019-03-05T03:31:33.058Z,7.8
2019-03-05T03:32:34.679Z,7.8
2019-03-05T03:33:36.136Z,7.9
2019-03-05T03:34:37.441Z,7.9
2019-03-05T03:35:38.903Z,7.9
2019-03-05T03:36:40.453Z,7.9
2019-03-05T03:37:41.886Z,7.9
2019-03-05T03:38:43.302Z,7.9
2019-03-05T03:39:44.381Z,7.9
2019-03-05T03:40:45.966Z,7.9
2019-03-05T03:41:47.502Z,7.2
2019-03-05T03:42:49.098Z,7.3
2019-03-05T03:43:50.513Z,7.3
2019-03-05T03:44:52.094Z,7.3
2019-03-05T03:45:53.348Z,7.4
2019-03-05T03:46:54.904Z,7.4
2019-03-05T03:47:56.522Z,7.4
2019-03-05T03:48:58.094Z,7.5
2019-03-05T03:49:59.670Z,7.5
2019-03-05T03:51:01.296Z,7.6
2019-03-05T03:52:02.524Z,7.7
2019-03-05T03:53:04.114Z,7.7
2019-03-05T03:54:05.553Z,7.8
2019-03-05T03:55:07.005Z,7.8
2019-03-05T03:56:08.582Z,7.8
2019-03-05T03:57:09.993Z,7.8
2019-03-05T03:58:11.574Z,7.9
2019-03-05T03:59:13.179Z,7.9
2019-03-05T04:00:14.765Z,7.9
2019-03-05T04:01:16.351Z,7.8
2019-03-05T04:02:17.925Z,7.8
2019-03-05T04:03:19.347Z,7.8
2019-03-05T04:04:20.855Z,7.8
2019-03-05T04:05:22.462Z,7.9
2019-03-05T04:06:23.880Z,7.9
2019-03-05T04:07:25.297Z,7.9
2019-03-05T04:08:26.718Z,7.9
2019-03-05T04:09:28.267Z,7.9
2019-03-05T04:10:29.678Z,7.9
2019-03-05T04:11:31.253Z,7.9
2019-03-05T04:12:32.826Z,7.9
2019-03-05T04:13:34.253Z,7.8
2019-03-05T04:14:35.577Z,7.8
2019-03-05T04:15:37.224Z,7.7
2019-03-05T04:16:38.773Z,7.5
2019-03-05T04:17:40.174Z,7.4
2019-03-05T04:18:41.607Z,7.2
2019-03-05T04:19:43.051Z,7.1
2019-03-05T04:20:44.593Z,7.1
2019-03-05T04:21:45.873Z,7.1
2019-03-05T04:22:47.485Z,7.1
2019-03-05T04:23:49.057Z,7.1
2019-03-05T04:24:50.321Z,7.1
2019-03-05T04:25:51.912Z,7.1
2019-03-05T04:26:54.005Z,7.1
2019-03-05T04:27:55.480Z,7.1
2019-03-05T04:28:56.930Z,7.1
2019-03-05T04:29:58.488Z,7.1
2019-03-05T04:31:00.118Z,7.1
2019-03-05T04:32:01.685Z,7.1
2019-03-05T04:33:03.285Z,7.1
2019-03-05T04:34:04.929Z,7.2
2019-03-05T04:35:06.483Z,7.2
2019-03-05T04:36:08.061Z,7.2
2019-03-05T04:37:09.472Z,7.2
2019-03-05T04:38:10.702Z,7.2
2019-03-05T04:39:12.263Z,7.2
2019-03-05T04:40:13.511Z,7.2
2019-03-05T04:41:14.896Z,7.2
2019-03-05T04:42:16.443Z,7.2
2019-03-05T04:43:17.994Z,7.2
2019-03-05T04:44:19.412Z,7.2
2019-03-05T04:45:20.793Z,7.2
2019-03-05T04:46:22.342Z,7.3
2019-03-05T04:47:23.741Z,7.3
2019-03-05T04:48:25.124Z,7.3
2019-03-05T04:49:28.185Z,7.4
2019-03-05T04:50:29.772Z,7.5
2019-03-05T04:51:31.149Z,7.7
2019-03-05T04:52:32.687Z,7.8
2019-03-05T04:53:34.361Z,7.8
2019-03-05T04:54:36.023Z,7.9
2019-03-05T04:55:37.479Z,7.9
2019-03-05T04:56:38.858Z,7.9
2019-03-05T04:57:40.397Z,7.9
2019-03-05T04:58:41.811Z,7.9
2019-03-05T04:59:43.072Z,7.9
2019-03-05T05:00:44.448Z,7.9
2019-03-05T05:01:46.033Z,7.9
2019-03-05T05:02:47.445Z,7.9
2019-03-05T05:03:48.702Z,7.9
2019-03-05T05:04:50.130Z,7.9
2019-03-05T05:05:51.668Z,7.9
2019-03-05T05:06:53.213Z,7.9
2019-03-05T05:07:54.772Z,7.9
2019-03-05T05:08:56.186Z,7.9
2019-03-05T05:09:57.744Z,7.9
2019-03-05T05:10:59.287Z,7.9
2019-03-05T05:12:00.669Z,7.9
2019-03-05T05:13:02.239Z,7.9
2019-03-05T05:14:03.621Z,7.9
2019-03-05T05:15:05.198Z,7.9
2019-03-05T05:16:06.755Z,7.9
2019-03-05T05:17:07.987Z,7.9
2019-03-05T05:18:09.387Z,7.9
2019-03-05T05:19:10.931Z,7.9
2019-03-05T05:20:12.178Z,7.9
2019-03-05T05:21:13.591Z,7.8
2019-03-05T05:22:15.116Z,7.8
2019-03-05T05:23:16.501Z,7.8
2019-03-05T05:24:18.075Z,7.8
2019-03-05T05:25:19.617Z,7.8
2019-03-05T05:26:21.149Z,7.8
2019-03-05T05:27:22.543Z,7.2
2019-03-05T05:28:23.761Z,7.2
2019-03-05T05:29:25.353Z,7.3
2019-03-05T05:30:26.763Z,7.3
2019-03-05T05:31:28.162Z,7.3
2019-03-05T05:32:29.705Z,7.3
2019-03-05T05:33:31.260Z,7.3
2019-03-05T05:34:32.845Z,7.4
2019-03-05T05:35:34.413Z,7.4
2019-03-05T05:36:35.856Z,7.4
2019-03-05T05:37:37.443Z,7.3
2019-03-05T05:38:39.009Z,7.3
2019-03-05T05:39:40.561Z,7.4
2019-03-05T05:40:42.216Z,7.4
2019-03-05T05:41:43.604Z,7.4
2019-03-05T05:42:44.847Z,7.4
2019-03-05T05:43:46.489Z,7.4
2019-03-05T05:44:48.133Z,7.4
2019-03-05T05:45:49.547Z,7.4
2019-03-05T05:46:50.958Z,7.4
2019-03-05T05:47:52.359Z,7.4
2019-03-05T05:48:53.912Z,7.4
2019-03-05T05:49:55.171Z,7.4
2019-03-05T05:50:56.715Z,7.4
2019-03-05T05:51:58.281Z,7.4
2019-03-05T05:52:59.689Z,7.5
2019-03-05T05:54:01.070Z,7.6
2019-03-05T05:55:02.493Z,7.7
2019-03-05T05:56:04.060Z,7.7
2019-03-05T05:57:05.599Z,7.8
2019-03-05T05:58:07.049Z,7.9
2019-03-05T05:59:08.595Z,7.9
2019-03-05T06:00:09.998Z,7.9
2019-03-05T06:01:11.401Z,7.3
2019-03-05T06:02:12.976Z,7.3
2019-03-05T06:03:14.524Z,7.3
2019-03-05T06:04:15.922Z,7.2
2019-03-05T06:05:17.324Z,7.2
2019-03-05T06:06:18.881Z,7.2
2019-03-05T06:07:20.450Z,7.2
2019-03-05T06:08:22.071Z,7.2
2019-03-05T06:09:23.711Z,7.1
2019-03-05T06:10:24.938Z,7.2
2019-03-05T06:11:26.337Z,7.1
2019-03-05T06:12:27.886Z,7.2
2019-03-05T06:13:29.449Z,7.1
2019-03-05T06:14:31.012Z,7.1
2019-03-05T06:15:32.416Z,7.1
2019-03-05T06:16:33.825Z,7.1
2019-03-05T06:17:35.411Z,7.1
2019-03-05T06:18:36.819Z,7.1
2019-03-05T06:19:38.426Z,7.2
2019-03-05T06:20:42.948Z,7.2
2019-03-05T06:21:44.492Z,7.2
2019-03-05T06:22:45.894Z,7.2
2019-03-05T06:23:47.447Z,7.2
2019-03-05T06:24:48.835Z,7.2
2019-03-05T06:25:50.503Z,7.2
2019-03-05T06:26:51.934Z,7.2
2019-03-05T06:27:53.376Z,7.2
2019-03-05T06:28:55.180Z,7.3
2019-03-05T06:29:56.712Z,7.4
2019-03-05T06:30:58.087Z,7.4
2019-03-05T06:31:59.496Z,7.5
2019-03-05T06:33:00.898Z,7.6
2019-03-05T06:34:02.445Z,7.7
2019-03-05T06:35:03.862Z,7.8
2019-03-05T06:36:05.425Z,7.9
2019-03-05T06:37:06.993Z,7.9
2019-03-05T06:38:08.802Z,7.9
2019-03-05T06:39:10.695Z,7.9
2019-03-05T06:40:12.171Z,7.9
2019-03-05T06:41:13.983Z,7.9
2019-03-05T06:42:15.252Z,7.9
2019-03-05T06:43:16.336Z,7.9
2019-03-05T06:44:17.748Z,7.9
2019-03-05T06:45:19.155Z,7.7
2019-03-05T06:46:20.710Z,7.8
2019-03-05T06:47:22.250Z,7.9
2019-03-05T06:48:23.793Z,7.9
2019-03-05T06:49:25.198Z,7.9
2019-03-05T06:50:26.649Z,7.9
2019-03-05T06:51:27.882Z,7.9
2019-03-05T06:52:29.437Z,7.9
2019-03-05T06:53:30.842Z,7.9
2019-03-05T06:54:32.225Z,7.9
2019-03-05T06:55:33.789Z,7.9
2019-03-05T06:56:35.183Z,7.9
2019-03-05T06:57:36.582Z,7.9
2019-03-05T06:58:38.043Z,7.9
2019-03-05T06:59:39.622Z,7.9
2019-03-05T07:00:41.230Z,7.9
2019-03-05T07:01:42.475Z,7.9
2019-03-05T07:02:43.859Z,7.9
2019-03-05T07:03:45.407Z,7.9
2019-03-05T07:04:46.830Z,7.9
2019-03-05T07:05:48.394Z,7.9
2019-03-05T07:06:49.976Z,7.9
2019-03-05T07:07:51.239Z,7.9
2019-03-05T07:08:52.803Z,7.9
2019-03-05T07:09:54.382Z,7.9
2019-03-05T07:10:58.528Z,7.9
2019-03-05T07:12:00.129Z,7.9
2019-03-05T07:13:01.696Z,7.9
2019-03-05T07:14:03.313Z,7.9
2019-03-05T07:15:04.715Z,7.9
2019-03-05T07:16:05.969Z,7.9
2019-03-05T07:17:07.514Z,7.9
2019-03-05T07:18:08.911Z,7.9
2019-03-05T07:19:10.190Z,7.9
2019-03-05T07:20:11.748Z,7.9
2019-03-05T07:21:13.308Z,7.9
2019-03-05T07:22:14.779Z,7.9
2019-03-05T07:23:16.196Z,7.9
2019-03-05T07:24:17.422Z,7.9
2019-03-05T07:25:18.970Z,7.9
2019-03-05T07:26:20.543Z,7.9
2019-03-05T07:27:21.945Z,7.9
2019-03-05T07:28:23.510Z,7.9
2019-03-05T07:29:24.901Z,7.8
2019-03-05T07:30:26.302Z,7.8
2019-03-05T07:31:27.847Z,7.7
2019-03-05T07:32:29.394Z,7.7
2019-03-05T07:33:30.811Z,7.5
2019-03-05T07:34:32.206Z,7.4
2019-03-05T07:35:33.766Z,7.3
2019-03-05T07:36:35.315Z,7.2
2019-03-05T07:37:36.879Z,7.1
2019-03-05T07:38:38.270Z,7.1
2019-03-05T07:39:39.670Z,7.2
2019-03-05T07:40:41.068Z,7.1
2019-03-05T07:41:42.322Z,7.1
2019-03-05T07:42:43.900Z,7.1
2019-03-05T07:43:45.302Z,7.1
2019-03-05T07:44:46.527Z,7.1
2019-03-05T07:45:47.760Z,7.1
2019-03-05T07:46:49.225Z,7.1
2019-03-05T07:47:50.638Z,7.1
2019-03-05T07:48:52.204Z,7.1
2019-03-05T07:49:53.591Z,7.2
2019-03-05T07:50:55.159Z,7.1
2019-03-05T07:51:56.568Z,7.2
2019-03-05T07:52:57.962Z,7.2
2019-03-05T07:53:59.513Z,7.2
2019-03-05T07:55:13.760Z,7.2
2019-03-05T07:56:15.602Z,7.2
2019-03-05T07:57:16.994Z,7.2
2019-03-05T07:58:18.378Z,7.2
2019-03-05T07:59:19.942Z,7.2
2019-03-05T08:00:21.359Z,7.2
2019-03-05T08:01:24.174Z,7.2
2019-03-05T08:02:25.739Z,7.3
2019-03-05T08:03:26.986Z,7.3
2019-03-05T08:04:28.526Z,7.3
2019-03-05T08:05:29.920Z,7.4
2019-03-05T08:06:31.317Z,7.5
2019-03-05T08:07:32.904Z,7.6
2019-03-05T08:08:34.154Z,7.8
2019-03-05T08:09:35.707Z,7.9
2019-03-05T08:10:36.942Z,7.9
2019-03-05T08:11:38.517Z,7.9
2019-03-05T08:12:39.951Z,7.3
2019-03-05T08:13:41.031Z,7.4
2019-03-05T08:14:42.407Z,7.6
2019-03-05T08:15:44.057Z,7.7
2019-03-05T08:16:45.710Z,7.9
2019-03-05T08:17:48.665Z,7.9
2019-03-05T08:18:50.242Z,7.8
2019-03-05T08:19:51.811Z,7.9
2019-03-05T08:20:53.359Z,7.9
2019-03-05T08:21:54.604Z,7.9
2019-03-05T08:22:56.010Z,7.9
2019-03-05T08:23:57.540Z,7.9
2019-03-05T08:24:59.099Z,7.9
2019-03-05T08:26:00.348Z,7.9
2019-03-05T08:27:01.772Z,7.9
2019-03-05T08:28:03.172Z,7.9
2019-03-05T08:29:04.648Z,7.9
2019-03-05T08:30:16.305Z,7.9
2019-03-05T08:31:17.874Z,7.9
2019-03-05T08:32:19.433Z,7.9
2019-03-05T08:33:21.057Z,7.9
2019-03-05T08:34:22.608Z,7.9
2019-03-05T08:35:23.842Z,7.9
2019-03-05T08:36:25.394Z,7.9
2019-03-05T08:37:26.944Z,7.9
2019-03-05T08:38:28.496Z,7.9
2019-03-05T08:39:30.055Z,7.8
2019-03-05T08:40:31.636Z,7.8
2019-03-05T08:41:33.039Z,7.8
2019-03-05T08:42:34.607Z,7.8
2019-03-05T08:43:36.152Z,7.8
2019-03-05T08:44:37.708Z,7.8
2019-03-05T08:45:39.266Z,7.8
2019-03-05T08:46:40.507Z,7.8
2019-03-05T08:47:41.778Z,7.8
2019-03-05T08:48:43.344Z,7.9
2019-03-05T08:49:44.978Z,7.8
2019-03-05T08:50:46.210Z,7.8
2019-03-05T08:51:47.598Z,7.8
2019-03-05T08:52:48.839Z,7.8
2019-03-05T08:53:51.144Z,7.8
2019-03-05T08:54:52.708Z,7.8
2019-03-05T08:55:54.286Z,7.8
2019-03-05T08:56:55.699Z,7.8
2019-03-05T08:57:57.339Z,7.8
2019-03-05T08:58:58.733Z,7.8
2019-03-05T09:00:00.385Z,7.8
2019-03-05T09:01:01.625Z,7.8
2019-03-05T09:02:03.174Z,7.5
2019-03-05T09:03:05.131Z,7.5
2019-03-05T09:04:06.678Z,7.4
2019-03-05T09:05:08.233Z,7.3
2019-03-05T09:06:09.777Z,7.2
2019-03-05T09:07:11.403Z,7.2
2019-03-05T09:08:12.861Z,7.2
2019-03-05T09:09:14.399Z,7.1
2019-03-05T09:10:15.794Z,7.1
2019-03-05T09:11:17.041Z,7.2
2019-03-05T09:12:18.594Z,7.2
2019-03-05T09:13:19.846Z,7.1
2019-03-05T09:14:21.251Z,7.1
2019-03-05T09:15:22.486Z,7.1
2019-03-05T09:16:23.893Z,7.2
2019-03-05T09:17:24.806Z,7.1
2019-03-05T09:18:26.038Z,7.1
2019-03-05T09:19:27.648Z,7.1
2019-03-05T09:20:29.076Z,7.1
2019-03-05T09:21:30.326Z,7.2
2019-03-05T09:22:31.873Z,7.2
2019-03-05T09:23:33.288Z,7.2
2019-03-05T09:24:34.683Z,7.2
2019-03-05T09:25:35.908Z,7.2
2019-03-05T09:26:37.505Z,7.2
2019-03-05T09:27:38.884Z,7.2
2019-03-05T09:28:40.442Z,7.2
2019-03-05T09:29:41.842Z,7.2
2019-03-05T09:30:43.387Z,7.3
2019-03-05T09:31:44.923Z,7.3
2019-03-05T09:32:46.475Z,7.4
2019-03-05T09:33:48.031Z,7.4
2019-03-05T09:34:49.613Z,7.5
2019-03-05T09:35:51.018Z,7.6
2019-03-05T09:36:52.822Z,7.6
2019-03-05T09:37:54.377Z,7.6
2019-03-05T09:38:55.926Z,7.6
2019-03-05T09:39:57.508Z,7.6
2019-03-05T09:40:59.163Z,7.6
2019-03-05T09:42:00.721Z,7.6
2019-03-05T09:43:02.287Z,7.7
2019-03-05T09:44:03.962Z,7.7
2019-03-05T09:45:05.203Z,7.7
2019-03-05T09:46:06.722Z,7.8
2019-03-05T09:47:08.124Z,7.8
2019-03-05T09:48:09.677Z,7.8
2019-03-05T09:49:11.243Z,7.8
2019-03-05T09:50:12.780Z,7.8
2019-03-05T09:51:14.340Z,7.8
2019-03-05T09:52:15.731Z,7.8
2019-03-05T09:53:17.117Z,7.9
2019-03-05T09:54:18.675Z,7.9
2019-03-05T09:55:20.074Z,7.9
2019-03-05T09:56:21.446Z,7.9
2019-03-05T09:57:23.019Z,7.9
2019-03-05T09:58:24.579Z,7.9
2019-03-05T09:59:26.132Z,7.8
2019-03-05T10:00:27.674Z,7.8
2019-03-05T10:01:29.247Z,7.8
2019-03-05T10:02:30.649Z,7.8
2019-03-05T10:03:32.192Z,7.8
2019-03-05T10:04:33.448Z,7.8
2019-03-05T10:05:34.995Z,7.9
2019-03-05T10:06:36.244Z,7.9
2019-03-05T10:07:37.794Z,7.9
2019-03-05T10:08:39.339Z,7.9
2019-03-05T10:09:40.721Z,7.9
2019-03-05T10:10:42.144Z,7.9
2019-03-05T10:11:43.605Z,7.9
2019-03-05T10:12:45.224Z,7.9
2019-03-05T10:13:46.652Z,7.9
2019-03-05T10:14:48.247Z,7.9
2019-03-05T10:15:50.058Z,7.9
2019-03-05T10:16:51.643Z,7.9
2019-03-05T10:17:53.022Z,7.9
2019-03-05T10:18:54.575Z,7.9
2019-03-05T10:19:56.123Z,7.9
2019-03-05T10:20:57.691Z,7.9
2019-03-05T10:21:59.072Z,7.9
2019-03-05T10:23:00.467Z,7.9
2019-03-05T10:24:12.279Z,7.9
2019-03-05T10:25:14.534Z,7.8
2019-03-05T10:26:18.986Z,7.8
2019-03-05T10:27:20.564Z,7.8
2019-03-05T10:28:22.155Z,7.8
2019-03-05T10:29:23.555Z,7.8
2019-03-05T10:30:26.646Z,7.8
2019-03-05T10:31:28.205Z,7.8
2019-03-05T10:32:29.613Z,7.8
2019-03-05T10:33:31.210Z,7.8
2019-03-05T10:34:32.775Z,7.9
2019-03-05T10:35:34.173Z,7.9
2019-03-05T10:36:35.726Z,7.9
2019-03-05T10:37:37.148Z,7.9
2019-03-05T10:38:38.721Z,7.9
2019-03-05T10:39:40.143Z,7.9
2019-03-05T10:41:51.248Z,7.4
2019-03-05T10:42:52.765Z,7.4
2019-03-05T10:43:54.183Z,7.5
2019-03-05T10:44:55.428Z,7.6
2019-03-05T10:45:56.683Z,7.7
2019-03-05T10:46:58.250Z,7.7
2019-03-05T10:47:59.827Z,7.7
2019-03-05T10:49:01.073Z,7.7
2019-03-05T10:50:17.346Z,7.7
2019-03-05T10:51:18.943Z,7.6
2019-03-05T10:52:20.501Z,7.4
2019-03-05T10:53:21.877Z,7.3
2019-03-05T10:54:23.290Z,7.2
2019-03-05T10:55:28.017Z,7.2
2019-03-05T10:56:29.559Z,7.2
2019-03-05T10:57:31.000Z,7.1
2019-03-05T10:58:35.845Z,7.2
2019-03-05T10:59:37.395Z,7.2
2019-03-05T11:00:38.811Z,7.1
2019-03-05T11:01:40.225Z,7.2
2019-03-05T11:02:41.850Z,7.1
2019-03-05T11:03:43.254Z,7.1
2019-03-05T11:04:47.478Z,7.2
2019-03-05T11:05:48.872Z,7.2
2019-03-05T11:06:50.421Z,7.1
2019-03-05T11:07:52.014Z,7.1
2019-03-05T11:08:53.553Z,7.2
2019-03-05T11:09:55.101Z,7.2
2019-03-05T11:10:56.516Z,7.2
2019-03-05T11:11:58.078Z,7.2
2019-03-05T11:12:59.466Z,7.2
2019-03-05T11:14:00.886Z,7.2
2019-03-05T11:15:02.132Z,7.2
2019-03-05T11:16:03.682Z,7.2
2019-03-05T11:17:05.072Z,7.2
2019-03-05T11:18:06.460Z,7.2
2019-03-05T11:19:07.701Z,7.2
2019-03-05T11:20:09.208Z,7.2
2019-03-05T11:21:10.781Z,7.2
2019-03-05T11:22:12.183Z,7.2
2019-03-05T11:23:13.801Z,7.2
2019-03-05T11:24:15.601Z,7.3
2019-03-05T11:25:17.160Z,7.3
2019-03-05T11:26:18.711Z,7.4
2019-03-05T11:27:20.252Z,7.5
2019-03-05T11:28:21.813Z,7.6
2019-03-05T11:29:23.367Z,7.7
2019-03-05T11:30:37.090Z,7.8
2019-03-05T11:31:38.488Z,7.9
2019-03-05T11:32:39.880Z,7.9
2019-03-05T11:33:41.441Z,7.8
2019-03-05T11:34:42.851Z,7.9
2019-03-05T11:35:44.082Z,7.9
2019-03-05T11:36:45.653Z,7.2
2019-03-05T11:37:46.891Z,7.4
2019-03-05T11:38:48.424Z,7.5
2019-03-05T11:39:49.824Z,7.7
2019-03-05T11:40:51.378Z,7.8
2019-03-05T11:41:52.793Z,7.9
2019-03-05T11:42:54.358Z,7.9
2019-03-05T11:43:55.915Z,7.9
2019-03-05T11:45:12.703Z,7.9
2019-03-05T11:46:14.254Z,7.9
2019-03-05T11:47:15.817Z,7.9
2019-03-05T11:48:17.227Z,7.9
2019-03-05T11:49:18.786Z,7.5
2019-03-05T11:50:20.167Z,7.6
2019-03-05T11:51:21.552Z,7.7
2019-03-05T11:52:23.107Z,7.8
2019-03-05T11:53:24.558Z,7.9
2019-03-05T11:54:26.141Z,7.9
2019-03-05T11:55:27.563Z,7.9
2019-03-05T11:56:28.806Z,7.9
2019-03-05T11:57:30.223Z,7.9
2019-03-05T11:58:31.761Z,7.9
2019-03-05T11:59:33.001Z,7.9
2019-03-05T12:00:34.392Z,7.9
2019-03-05T12:01:35.782Z,7.9
2019-03-05T12:02:37.189Z,7.9
2019-03-05T12:03:38.600Z,7.9
2019-03-05T12:04:40.149Z,7.9
2019-03-05T12:05:41.717Z,7.9
2019-03-05T12:06:43.275Z,7.9
2019-03-05T12:07:47.600Z,7.9
2019-03-05T12:08:49.030Z,7.9
2019-03-05T12:09:50.444Z,7.9
2019-03-05T12:10:51.873Z,7.9
2019-03-05T12:11:53.440Z,7.9
2019-03-05T12:12:54.688Z,7.9
2019-03-05T12:13:56.246Z,7.9
2019-03-05T12:14:57.879Z,7.9
2019-03-05T12:15:59.433Z,7.9
2019-03-05T12:17:00.848Z,7.9
2019-03-05T12:18:02.282Z,7.9
2019-03-05T12:19:03.851Z,7.2
2019-03-05T12:20:05.267Z,7.4
2019-03-05T12:21:06.818Z,7.5
2019-03-05T12:22:08.353Z,7.6
2019-03-05T12:23:13.163Z,7.6
2019-03-05T12:24:14.734Z,7.6
2019-03-05T12:25:16.304Z,7.6
2019-03-05T12:26:17.930Z,7.5
2019-03-05T12:27:19.315Z,7.4
2019-03-05T12:28:20.922Z,7.2
2019-03-05T12:29:22.484Z,7.1
2019-03-05T12:30:23.615Z,7.1
2019-03-05T12:31:25.016Z,7.1
2019-03-05T12:32:26.387Z,7.2
2019-03-05T12:33:27.943Z,7.1
2019-03-05T12:34:29.187Z,7.1
2019-03-05T12:35:30.598Z,7.1
2019-03-05T12:36:32.024Z,7.1
2019-03-05T12:37:33.270Z,7.1
2019-03-05T12:38:34.684Z,7.1
2019-03-05T12:39:36.112Z,7.1
2019-03-05T12:40:37.746Z,7.1
2019-03-05T12:41:39.313Z,7.1
2019-03-05T12:42:40.860Z,7.1
2019-03-05T12:43:42.248Z,7.1
2019-03-05T12:44:43.855Z,7.1
2019-03-05T12:45:45.103Z,7.1
2019-03-05T12:46:46.666Z,7.1
2019-03-05T12:47:48.273Z,7.1
2019-03-05T12:48:49.847Z,7.2
2019-03-05T12:49:51.412Z,7.1
2019-03-05T12:50:52.974Z,7.2
2019-03-05T12:51:54.543Z,7.2
2019-03-05T12:52:55.955Z,7.2
2019-03-05T12:53:57.517Z,7.2
2019-03-05T12:54:59.070Z,7.2
2019-03-05T12:56:00.617Z,7.2
2019-03-05T12:57:01.860Z,7.2
2019-03-05T12:58:03.464Z,7.2
2019-03-05T12:59:04.709Z,7.2
2019-03-05T13:00:06.100Z,7.2
2019-03-05T13:01:07.495Z,7.2
2019-03-05T13:02:08.733Z,7.2
2019-03-05T13:03:10.130Z,7.3
2019-03-05T13:04:11.374Z,7.3
2019-03-05T13:05:12.918Z,7.4
2019-03-05T13:06:14.333Z,7.5
2019-03-05T13:07:20.279Z,7.6
2019-03-05T13:08:21.861Z,7.7
2019-03-05T13:09:23.261Z,7.9
2019-03-05T13:10:24.515Z,7.9
2019-03-05T13:11:25.926Z,7.9
2019-03-05T13:12:27.357Z,7.9
2019-03-05T13:13:28.757Z,7.9
2019-03-05T13:14:30.407Z,7.9
2019-03-05T13:15:31.819Z,7.2
2019-03-05T13:16:41.885Z,7.4
2019-03-05T13:17:51.133Z,7.5
2019-03-05T13:18:52.649Z,7.7
2019-03-05T13:19:55.258Z,7.8
2019-03-05T13:20:56.808Z,7.9
2019-03-05T13:21:58.351Z,7.2
2019-03-05T13:22:59.776Z,7.4
2019-03-05T13:24:01.214Z,7.5
2019-03-05T13:25:02.650Z,7.7
2019-03-05T13:26:10.195Z,7.8
2019-03-05T13:27:11.255Z,7.9
2019-03-05T13:28:12.810Z,7.9
2019-03-05T13:29:21.573Z,7.9
2019-03-05T13:30:27.978Z,7.9
2019-03-05T13:31:29.566Z,7.9
2019-03-05T13:32:31.154Z,7.9
2019-03-05T13:33:43.013Z,7.9
2019-03-05T13:34:44.553Z,7.9
2019-03-05T13:35:45.962Z,7.9
2019-03-05T13:36:52.642Z,7.9
2019-03-05T13:37:53.767Z,7.7
2019-03-05T13:38:55.150Z,7.8
2019-03-05T13:40:00.627Z,7.9
2019-03-05T13:41:02.046Z,7.9
2019-03-05T13:42:03.273Z,7.8
2019-03-05T13:43:04.834Z,7.9
2019-03-05T13:44:06.265Z,7.5
2019-03-05T13:45:11.478Z,7.6
2019-03-05T13:46:13.035Z,7.7
2019-03-05T13:47:14.878Z,7.8
2019-03-05T13:48:24.807Z,7.9
2019-03-05T13:49:26.202Z,7.9
2019-03-05T13:50:27.762Z,7.9
2019-03-05T13:51:29.339Z,7.9
2019-03-05T13:52:38.121Z,7.9
2019-03-05T13:53:39.659Z,7.9
2019-03-05T13:54:50.362Z,7.9
2019-03-05T13:55:51.607Z,7.9
2019-03-05T13:56:53.172Z,7.8
2019-03-05T13:57:57.134Z,7.8
2019-03-05T13:58:58.556Z,7.8
2019-03-05T13:59:59.937Z,7.8
2019-03-05T14:01:01.501Z,7.9
2019-03-05T14:02:02.820Z,7.8
2019-03-05T14:03:04.224Z,7.8
2019-03-05T14:04:05.777Z,7.9
2019-03-05T14:05:07.324Z,7.9
2019-03-05T14:06:08.917Z,7.8
2019-03-05T14:07:10.180Z,7.8
2019-03-05T14:08:11.819Z,7.7
2019-03-05T14:09:13.501Z,7.7
2019-03-05T14:10:14.988Z,7.6
2019-03-05T14:11:16.572Z,7.4